M\t Procida — IBJT — position and weather

sailwx.info

Track history (hours):
 
Tides and Currents Weather Stations Pressure Air Temp Water Temp Dewpoint Dewpoint Depression Visibility Wind Speed Wind Dir Waves Ship Positions

M\t Procida

Last reported at 2017-Nov-19 19:46 UTC. Time now 2017-Nov-22 03:40 UTC.
Position N 55°60' W 001°39'.

Length 149 m; draft 9.2 m.

Type: Tanker. MMSI: 247258400.

Date/timePositionNaut miles runAvg speedWind from/ knotsBaromVisibWave heightAir tempDewpointWater temp
2017-Nov-19 19:46N 55°60' W 001°39'0 0.1
2017-Nov-19 19:17N 55°60' W 001°40'412.0
2017-Nov-19 18:57N 56°01' W 001°46'612.4
2017-Nov-19 18:30N 56°02' W 001°56'612.6
2017-Nov-19 18:00N 56°04' W 002°07'612.7
2017-Nov-19 17:30N 56°06' W 002°18'713.0
2017-Nov-19 17:00N 56°07' W 002°29'713.4
2017-Nov-19 16:31N 56°07' W 002°41'714.0
2017-Nov-19 16:00N 56°05' W 002°53'713.1
2017-Nov-19 15:30N 56°03' W 003°04'510.8
2017-Nov-19 15:00N 56°02' W 003°14'611.2
2017-Nov-19 14:30N 56°00' W 003°23'1010.0
2017-Nov-19 13:33N 56°02' W 003°40'0 4.3
2017-Nov-19 13:27N 56°02' W 003°41'0 0.8
2017-Nov-19 12:54N 56°02' W 003°41'0 0.5
2017-Nov-19 12:24N 56°02' W 003°41'0 0.0
2017-Nov-19 12:00N 56°02' W 003°41'0 0.0
2017-Nov-17 13:59N 56°02' W 003°42'1 1.0
2017-Nov-17 13:06N 56°02' W 003°40'1 5.3
2017-Nov-17 12:58N 56°02' W 003°39'4 7.0
2017-Nov-17 12:24N 56°02' W 003°32'411.0
2017-Nov-17 12:00N 56°00' W 003°25'4 8.8
2017-Nov-17 11:30N 56°02' W 003°17'611.4
2017-Nov-17 11:00N 56°04' W 003°08'1 2.2
2017-Nov-17 10:28N 56°05' W 003°07'0 0.1
2017-Nov-17 09:58N 56°05' W 003°07'0 0.1
2017-Nov-17 09:28N 56°05' W 003°07'0 0.1
2017-Nov-17 08:58N 56°05' W 003°07'0 0.0
2017-Nov-17 08:28N 56°05' W 003°07'0 0.1
2017-Nov-17 07:58N 56°05' W 003°07'0 0.0
2017-Nov-17 07:28N 56°05' W 003°07'0 0.0
2017-Nov-17 06:58N 56°05' W 003°07'0 0.0
2017-Nov-17 06:28N 56°05' W 003°07'0 0.0
2017-Nov-17 05:58N 56°05' W 003°07'0 0.0
2017-Nov-17 05:28N 56°05' W 003°07'0 0.0
2017-Nov-17 04:58N 56°05' W 003°07'0 0.0
2017-Nov-17 04:28N 56°05' W 003°07'0 0.0
2017-Nov-17 03:58N 56°05' W 003°07'0 0.0
2017-Nov-17 03:28N 56°05' W 003°07'0 0.0
2017-Nov-17 02:58N 56°05' W 003°07'0 0.0
2017-Nov-17 02:28N 56°05' W 003°07'0 0.0
2017-Nov-17 01:58N 56°05' W 003°07'0 0.0
2017-Nov-17 01:28N 56°05' W 003°07'0 0.0
2017-Nov-17 00:58N 56°05' W 003°07'0 0.0
2017-Nov-17 00:28N 56°05' W 003°07'0 0.0
2017-Nov-16 23:58N 56°05' W 003°07'0 0.0
2017-Nov-16 23:28N 56°05' W 003°07'0 0.0
2017-Nov-16 22:58N 56°05' W 003°07'0 0.0
2017-Nov-16 22:28N 56°05' W 003°07'0 0.0
2017-Nov-16 21:58N 56°05' W 003°07'0 0.0
2017-Nov-16 21:28N 56°05' W 003°07'0 0.0
2017-Nov-16 20:58N 56°05' W 003°07'0 0.0
2017-Nov-16 20:28N 56°05' W 003°07'0 0.0
2017-Nov-16 19:58N 56°05' W 003°07'0 0.0
2017-Nov-16 19:28N 56°05' W 003°07'0 0.0
2017-Nov-16 18:58N 56°05' W 003°07'0 0.0
2017-Nov-16 18:28N 56°05' W 003°07'0 0.0
2017-Nov-16 17:58N 56°05' W 003°07'0 0.0
2017-Nov-16 17:28N 56°05' W 003°07'0 0.1
2017-Nov-16 16:58N 56°05' W 003°07'0 0.0
2017-Nov-16 16:28N 56°05' W 003°07'0 0.0
2017-Nov-16 15:58N 56°05' W 003°07'0 0.0
2017-Nov-16 15:28N 56°05' W 003°07'0 0.1
2017-Nov-16 14:58N 56°05' W 003°07'0 0.0
2017-Nov-16 14:28N 56°05' W 003°07'0 0.0
2017-Nov-16 13:58N 56°05' W 003°07'0 0.0
2017-Nov-16 13:28N 56°05' W 003°07'0 0.0
2017-Nov-16 12:58N 56°05' W 003°07'0 0.0
2017-Nov-16 12:28N 56°05' W 003°07'0 0.0
2017-Nov-16 11:55N 56°05' W 003°07'0 0.0
2017-Nov-16 11:28N 56°05' W 003°07'0 0.0
2017-Nov-16 10:58N 56°05' W 003°07'0 0.0
2017-Nov-16 10:28N 56°05' W 003°07'0 0.0
2017-Nov-16 09:58N 56°05' W 003°07'0 0.1
2017-Nov-16 09:28N 56°05' W 003°07'0 0.1
2017-Nov-16 08:58N 56°05' W 003°07'0 0.1
2017-Nov-16 08:28N 56°05' W 003°07'0 0.2
2017-Nov-16 07:58N 56°05' W 003°07'0 0.0
2017-Nov-16 07:28N 56°05' W 003°07'0 0.0
2017-Nov-16 06:58N 56°05' W 003°07'0 0.0
2017-Nov-16 06:28N 56°05' W 003°07'0 0.0
2017-Nov-16 05:58N 56°05' W 003°07'0 0.1
2017-Nov-16 05:28N 56°05' W 003°07'0 0.0
2017-Nov-16 04:58N 56°05' W 003°07'0 0.0
2017-Nov-16 04:28N 56°05' W 003°07'0 0.0
2017-Nov-16 03:58N 56°05' W 003°07'0 0.0
2017-Nov-16 03:28N 56°05' W 003°07'0 0.0
2017-Nov-16 02:59N 56°05' W 003°07'1 1.1
2017-Nov-16 02:30N 56°05' W 003°06'3 5.8
2017-Nov-16 02:00N 56°06' W 003°01'612.3
2017-Nov-16 01:30N 56°06' W 002°50'612.9
2017-Nov-16 01:00N 56°07' W 002°38'713.1
2017-Nov-16 00:30N 56°08' W 002°27'612.8
2017-Nov-16 00:00N 56°09' W 002°16'612.7
2017-Nov-15 23:30N 56°10' W 002°04'612.9
2017-Nov-15 23:00N 56°11' W 001°53'613.0
2017-Nov-15 22:30N 56°12' W 001°41'40012.3
2017-Nov-14 14:00N 57°54' E 010°10'612.8
2017-Nov-14 13:30N 57°54' E 010°22'612.7
2017-Nov-14 13:00N 57°55' E 010°34'612.9
2017-Nov-14 12:30N 57°55' E 010°46'713.2
2017-Nov-14 12:00N 57°54' E 010°59'713.3
2017-Nov-14 11:30N 57°53' E 011°11'713.2
2017-Nov-14 11:00N 57°53' E 011°24'510.0
2017-Nov-14 10:31N 57°54' E 011°32'5 9.3
2017-Nov-14 10:00N 57°56' E 011°41'510.4
2017-Nov-14 09:30N 58°01' E 011°46'5 9.0
2017-Nov-14 08:56N 58°05' E 011°48'0 0.5
2017-Nov-14 08:09N 58°05' E 011°49'0 0.0
2017-Nov-14 05:42N 58°05' E 011°49'0 0.0
2017-Nov-14 05:12N 58°05' E 011°49'0 0.0
2017-Nov-14 05:00N 58°05' E 011°49'0 0.0
2017-Nov-14 04:24N 58°05' E 011°49'0 0.0
2017-Nov-14 04:00N 58°05' E 011°49'0 0.0
2017-Nov-14 02:51N 58°05' E 011°49'0 0.0
2017-Nov-14 02:12N 58°05' E 011°49'0 0.0
2017-Nov-14 02:00N 58°05' E 011°49'0 0.0
2017-Nov-14 01:27N 58°05' E 011°49'0 0.0
2017-Nov-14 00:51N 58°05' E 011°49'0 0.0
2017-Nov-14 00:03N 58°05' E 011°49'0 0.0
2017-Nov-13 23:15N 58°05' E 011°49'0 0.0
2017-Nov-13 22:12N 58°05' E 011°49'0 0.0
2017-Nov-13 21:54N 58°05' E 011°49'0 0.0
2017-Nov-13 01:30N 58°05' E 011°49'0 0.0
2017-Nov-13 01:00N 58°05' E 011°49'0 0.0
2017-Nov-13 00:30N 58°05' E 011°49'0 0.0
2017-Nov-12 22:54N 58°05' E 011°49'0 0.0
2017-Nov-12 20:55N 58°05' E 011°49'1 2.3
2017-Nov-12 20:24N 58°04' E 011°47'3 7.7
2017-Nov-12 19:58N 58°01' E 011°47'510.4
2017-Nov-12 19:30N 57°57' E 011°42'5 9.2
2017-Nov-12 19:00N 57°55' E 011°34'511.0
2017-Nov-12 18:30N 57°51' E 011°27'1 2.5
2017-Nov-12 18:00N 57°51' E 011°25'2 4.5
2017-Nov-12 17:30N 57°50' E 011°21'612.5
2017-Nov-12 17:00N 57°50' E 011°09'612.9
2017-Nov-12 16:30N 57°50' E 010°57'713.4
2017-Nov-12 16:00N 57°49' E 010°44'713.3
2017-Nov-12 15:30N 57°48' E 010°32'612.8
2017-Nov-12 15:00N 57°48' E 010°20'209 9.9
2017-Nov-11 17:59N 55°23' E 005°46'510.1
2017-Nov-11 17:27N 55°19' E 005°41'4 9.9
2017-Nov-11 17:00N 55°15' E 005°38'5 9.7
2017-Nov-11 16:30N 55°10' E 005°34'5 9.3
2017-Nov-11 15:59N 55°06' E 005°31'180 8.8
2017-Nov-10 19:28N 52°20' E 003°32'4 8.7
2017-Nov-10 19:00N 52°17' E 003°36'5 9.3
2017-Nov-10 18:27N 52°12' E 003°39'5 9.0
2017-Nov-10 17:56N 52°08' E 003°41'1 2.1
2017-Nov-10 17:26N 52°07' E 003°42'0 0.1
2017-Nov-10 16:53N 52°07' E 003°42'0 0.0
2017-Nov-10 16:26N 52°07' E 003°42'0 0.1
2017-Nov-10 15:53N 52°07' E 003°42'0 0.1
2017-Nov-10 15:26N 52°07' E 003°42'0 0.0
2017-Nov-10 14:47N 52°07' E 003°42'0 0.1
2017-Nov-10 14:26N 52°07' E 003°42'0 0.1
2017-Nov-10 13:59N 52°07' E 003°42'0 0.1
2017-Nov-10 13:29N 52°07' E 003°42'0 0.0
2017-Nov-10 12:53N 52°07' E 003°42'0 0.1
2017-Nov-10 12:29N 52°07' E 003°42'0 0.1
2017-Nov-10 11:56N 52°07' E 003°42'0 0.1
2017-Nov-10 11:29N 52°07' E 003°42'0 0.1
2017-Nov-10 10:59N 52°07' E 003°42'0 0.1
2017-Nov-10 10:23N 52°07' E 003°42'0 0.1
2017-Nov-10 09:59N 52°07' E 003°42'0 0.0
2017-Nov-10 09:29N 52°07' E 003°42'0 0.0
2017-Nov-10 04:41N 52°07' E 003°42'0 0.0
2017-Nov-10 04:11N 52°07' E 003°42'0 0.1
2017-Nov-10 03:56N 52°07' E 003°42'0 0.0
2017-Nov-10 03:29N 52°07' E 003°42'0 0.2
2017-Nov-10 02:47N 52°07' E 003°42'0 0.1
2017-Nov-10 02:26N 52°07' E 003°42'0 0.1
2017-Nov-10 01:56N 52°07' E 003°42'0 0.0
2017-Nov-10 01:29N 52°07' E 003°42'0 0.0
2017-Nov-10 00:59N 52°07' E 003°42'0 0.0
2017-Nov-10 00:29N 52°07' E 003°42'0 0.0
2017-Nov-09 23:53N 52°07' E 003°42'0 0.0
2017-Nov-09 23:26N 52°07' E 003°42'0 0.0
2017-Nov-09 22:59N 52°07' E 003°42'0 0.1
2017-Nov-09 21:26N 52°07' E 003°42'0 0.1
2017-Nov-09 20:59N 52°07' E 003°42'  
Track history (hours):
 
Tides and Currents Weather Stations Pressure Air Temp Water Temp Dewpoint Dewpoint Depression Visibility Wind Speed Wind Dir Waves Ship Positions

M\t Procida

Last reported at 2017-Nov-19 19:46 UTC. Time now 2017-Nov-22 03:40 UTC.
Position N 55°60' W 001°39'.

Length 149 m; draft 9.2 m.

Type: Tanker. MMSI: 247258400.

Date/timePositionNaut miles runAvg speedWind from/ knotsBaromVisibWave heightAir tempDewpointWater temp
2017-Nov-19 19:46N 55°60' W 001°39'0 0.1
2017-Nov-19 19:17N 55°60' W 001°40'412.0
2017-Nov-19 18:57N 56°01' W 001°46'612.4
2017-Nov-19 18:30N 56°02' W 001°56'612.6
2017-Nov-19 18:00N 56°04' W 002°07'612.7
2017-Nov-19 17:30N 56°06' W 002°18'713.0
2017-Nov-19 17:00N 56°07' W 002°29'713.4
2017-Nov-19 16:31N 56°07' W 002°41'714.0
2017-Nov-19 16:00N 56°05' W 002°53'713.1
2017-Nov-19 15:30N 56°03' W 003°04'510.8
2017-Nov-19 15:00N 56°02' W 003°14'611.2
2017-Nov-19 14:30N 56°00' W 003°23'1010.0
2017-Nov-19 13:33N 56°02' W 003°40'0 4.3
2017-Nov-19 13:27N 56°02' W 003°41'0 0.8
2017-Nov-19 12:54N 56°02' W 003°41'0 0.5
2017-Nov-19 12:24N 56°02' W 003°41'0 0.0
2017-Nov-19 12:00N 56°02' W 003°41'0 0.0
2017-Nov-17 13:59N 56°02' W 003°42'1 1.0
2017-Nov-17 13:06N 56°02' W 003°40'1 5.3
2017-Nov-17 12:58N 56°02' W 003°39'4 7.0
2017-Nov-17 12:24N 56°02' W 003°32'411.0
2017-Nov-17 12:00N 56°00' W 003°25'4 8.8
2017-Nov-17 11:30N 56°02' W 003°17'611.4
2017-Nov-17 11:00N 56°04' W 003°08'1 2.2
2017-Nov-17 10:28N 56°05' W 003°07'0 0.1
2017-Nov-17 09:58N 56°05' W 003°07'0 0.1
2017-Nov-17 09:28N 56°05' W 003°07'0 0.1
2017-Nov-17 08:58N 56°05' W 003°07'0 0.0
2017-Nov-17 08:28N 56°05' W 003°07'0 0.1
2017-Nov-17 07:58N 56°05' W 003°07'0 0.0
2017-Nov-17 07:28N 56°05' W 003°07'0 0.0
2017-Nov-17 06:58N 56°05' W 003°07'0 0.0
2017-Nov-17 06:28N 56°05' W 003°07'0 0.0
2017-Nov-17 05:58N 56°05' W 003°07'0 0.0
2017-Nov-17 05:28N 56°05' W 003°07'0 0.0
2017-Nov-17 04:58N 56°05' W 003°07'0 0.0
2017-Nov-17 04:28N 56°05' W 003°07'0 0.0
2017-Nov-17 03:58N 56°05' W 003°07'0 0.0
2017-Nov-17 03:28N 56°05' W 003°07'0 0.0
2017-Nov-17 02:58N 56°05' W 003°07'0 0.0
2017-Nov-17 02:28N 56°05' W 003°07'0 0.0
2017-Nov-17 01:58N 56°05' W 003°07'0 0.0
2017-Nov-17 01:28N 56°05' W 003°07'0 0.0
2017-Nov-17 00:58N 56°05' W 003°07'0 0.0
2017-Nov-17 00:28N 56°05' W 003°07'0 0.0
2017-Nov-16 23:58N 56°05' W 003°07'0 0.0
2017-Nov-16 23:28N 56°05' W 003°07'0 0.0
2017-Nov-16 22:58N 56°05' W 003°07'0 0.0
2017-Nov-16 22:28N 56°05' W 003°07'0 0.0
2017-Nov-16 21:58N 56°05' W 003°07'0 0.0
2017-Nov-16 21:28N 56°05' W 003°07'0 0.0
2017-Nov-16 20:58N 56°05' W 003°07'0 0.0
2017-Nov-16 20:28N 56°05' W 003°07'0 0.0
2017-Nov-16 19:58N 56°05' W 003°07'0 0.0
2017-Nov-16 19:28N 56°05' W 003°07'0 0.0
2017-Nov-16 18:58N 56°05' W 003°07'0 0.0
2017-Nov-16 18:28N 56°05' W 003°07'0 0.0
2017-Nov-16 17:58N 56°05' W 003°07'0 0.0
2017-Nov-16 17:28N 56°05' W 003°07'0 0.1
2017-Nov-16 16:58N 56°05' W 003°07'0 0.0
2017-Nov-16 16:28N 56°05' W 003°07'0 0.0
2017-Nov-16 15:58N 56°05' W 003°07'0 0.0
2017-Nov-16 15:28N 56°05' W 003°07'0 0.1
2017-Nov-16 14:58N 56°05' W 003°07'0 0.0
2017-Nov-16 14:28N 56°05' W 003°07'0 0.0
2017-Nov-16 13:58N 56°05' W 003°07'0 0.0
2017-Nov-16 13:28N 56°05' W 003°07'0 0.0
2017-Nov-16 12:58N 56°05' W 003°07'0 0.0
2017-Nov-16 12:28N 56°05' W 003°07'0 0.0
2017-Nov-16 11:55N 56°05' W 003°07'0 0.0
2017-Nov-16 11:28N 56°05' W 003°07'0 0.0
2017-Nov-16 10:58N 56°05' W 003°07'0 0.0
2017-Nov-16 10:28N 56°05' W 003°07'0 0.0
2017-Nov-16 09:58N 56°05' W 003°07'0 0.1
2017-Nov-16 09:28N 56°05' W 003°07'0 0.1
2017-Nov-16 08:58N 56°05' W 003°07'0 0.1
2017-Nov-16 08:28N 56°05' W 003°07'0 0.2
2017-Nov-16 07:58N 56°05' W 003°07'0 0.0
2017-Nov-16 07:28N 56°05' W 003°07'0 0.0
2017-Nov-16 06:58N 56°05' W 003°07'0 0.0
2017-Nov-16 06:28N 56°05' W 003°07'0 0.0
2017-Nov-16 05:58N 56°05' W 003°07'0 0.1
2017-Nov-16 05:28N 56°05' W 003°07'0 0.0
2017-Nov-16 04:58N 56°05' W 003°07'0 0.0
2017-Nov-16 04:28N 56°05' W 003°07'0 0.0
2017-Nov-16 03:58N 56°05' W 003°07'0 0.0
2017-Nov-16 03:28N 56°05' W 003°07'0 0.0
2017-Nov-16 02:59N 56°05' W 003°07'1 1.1
2017-Nov-16 02:30N 56°05' W 003°06'3 5.8
2017-Nov-16 02:00N 56°06' W 003°01'612.3
2017-Nov-16 01:30N 56°06' W 002°50'612.9
2017-Nov-16 01:00N 56°07' W 002°38'713.1
2017-Nov-16 00:30N 56°08' W 002°27'612.8
2017-Nov-16 00:00N 56°09' W 002°16'612.7
2017-Nov-15 23:30N 56°10' W 002°04'612.9
2017-Nov-15 23:00N 56°11' W 001°53'613.0
2017-Nov-15 22:30N 56°12' W 001°41'40012.3
2017-Nov-14 14:00N 57°54' E 010°10'612.8
2017-Nov-14 13:30N 57°54' E 010°22'612.7
2017-Nov-14 13:00N 57°55' E 010°34'612.9
2017-Nov-14 12:30N 57°55' E 010°46'713.2
2017-Nov-14 12:00N 57°54' E 010°59'713.3
2017-Nov-14 11:30N 57°53' E 011°11'713.2
2017-Nov-14 11:00N 57°53' E 011°24'510.0
2017-Nov-14 10:31N 57°54' E 011°32'5 9.3
2017-Nov-14 10:00N 57°56' E 011°41'510.4
2017-Nov-14 09:30N 58°01' E 011°46'5 9.0
2017-Nov-14 08:56N 58°05' E 011°48'0 0.5
2017-Nov-14 08:09N 58°05' E 011°49'0 0.0
2017-Nov-14 05:42N 58°05' E 011°49'0 0.0
2017-Nov-14 05:12N 58°05' E 011°49'0 0.0
2017-Nov-14 05:00N 58°05' E 011°49'0 0.0
2017-Nov-14 04:24N 58°05' E 011°49'0 0.0
2017-Nov-14 04:00N 58°05' E 011°49'0 0.0
2017-Nov-14 02:51N 58°05' E 011°49'0 0.0
2017-Nov-14 02:12N 58°05' E 011°49'0 0.0
2017-Nov-14 02:00N 58°05' E 011°49'0 0.0
2017-Nov-14 01:27N 58°05' E 011°49'0 0.0
2017-Nov-14 00:51N 58°05' E 011°49'0 0.0
2017-Nov-14 00:03N 58°05' E 011°49'0 0.0
2017-Nov-13 23:15N 58°05' E 011°49'0 0.0
2017-Nov-13 22:12N 58°05' E 011°49'0 0.0
2017-Nov-13 21:54N 58°05' E 011°49'0 0.0
2017-Nov-13 01:30N 58°05' E 011°49'0 0.0
2017-Nov-13 01:00N 58°05' E 011°49'0 0.0
2017-Nov-13 00:30N 58°05' E 011°49'0 0.0
2017-Nov-12 22:54N 58°05' E 011°49'0 0.0
2017-Nov-12 20:55N 58°05' E 011°49'1 2.3
2017-Nov-12 20:24N 58°04' E 011°47'3 7.7
2017-Nov-12 19:58N 58°01' E 011°47'510.4
2017-Nov-12 19:30N 57°57' E 011°42'5 9.2
2017-Nov-12 19:00N 57°55' E 011°34'511.0
2017-Nov-12 18:30N 57°51' E 011°27'1 2.5
2017-Nov-12 18:00N 57°51' E 011°25'2 4.5
2017-Nov-12 17:30N 57°50' E 011°21'612.5
2017-Nov-12 17:00N 57°50' E 011°09'612.9
2017-Nov-12 16:30N 57°50' E 010°57'713.4
2017-Nov-12 16:00N 57°49' E 010°44'713.3
2017-Nov-12 15:30N 57°48' E 010°32'612.8
2017-Nov-12 15:00N 57°48' E 010°20'209 9.9
2017-Nov-11 17:59N 55°23' E 005°46'510.1
2017-Nov-11 17:27N 55°19' E 005°41'4 9.9
2017-Nov-11 17:00N 55°15' E 005°38'5 9.7
2017-Nov-11 16:30N 55°10' E 005°34'5 9.3
2017-Nov-11 15:59N 55°06' E 005°31'180 8.8
2017-Nov-10 19:28N 52°20' E 003°32'4 8.7
2017-Nov-10 19:00N 52°17' E 003°36'5 9.3
2017-Nov-10 18:27N 52°12' E 003°39'5 9.0
2017-Nov-10 17:56N 52°08' E 003°41'1 2.1
2017-Nov-10 17:26N 52°07' E 003°42'0 0.1
2017-Nov-10 16:53N 52°07' E 003°42'0 0.0
2017-Nov-10 16:26N 52°07' E 003°42'0 0.1
2017-Nov-10 15:53N 52°07' E 003°42'0 0.1
2017-Nov-10 15:26N 52°07' E 003°42'0 0.0
2017-Nov-10 14:47N 52°07' E 003°42'0 0.1
2017-Nov-10 14:26N 52°07' E 003°42'0 0.1
2017-Nov-10 13:59N 52°07' E 003°42'0 0.1
2017-Nov-10 13:29N 52°07' E 003°42'0 0.0
2017-Nov-10 12:53N 52°07' E 003°42'0 0.1
2017-Nov-10 12:29N 52°07' E 003°42'0 0.1
2017-Nov-10 11:56N 52°07' E 003°42'0 0.1
2017-Nov-10 11:29N 52°07' E 003°42'0 0.1
2017-Nov-10 10:59N 52°07' E 003°42'0 0.1
2017-Nov-10 10:23N 52°07' E 003°42'0 0.1
2017-Nov-10 09:59N 52°07' E 003°42'0 0.0
2017-Nov-10 09:29N 52°07' E 003°42'0 0.0
2017-Nov-10 04:41N 52°07' E 003°42'0 0.0
2017-Nov-10 04:11N 52°07' E 003°42'0 0.1
2017-Nov-10 03:56N 52°07' E 003°42'0 0.0
2017-Nov-10 03:29N 52°07' E 003°42'0 0.2
2017-Nov-10 02:47N 52°07' E 003°42'0 0.1
2017-Nov-10 02:26N 52°07' E 003°42'0 0.1
2017-Nov-10 01:56N 52°07' E 003°42'0 0.0
2017-Nov-10 01:29N 52°07' E 003°42'0 0.0
2017-Nov-10 00:59N 52°07' E 003°42'0 0.0
2017-Nov-10 00:29N 52°07' E 003°42'0 0.0
2017-Nov-09 23:53N 52°07' E 003°42'0 0.0
2017-Nov-09 23:26N 52°07' E 003°42'0 0.0
2017-Nov-09 22:59N 52°07' E 003°42'0 0.1
2017-Nov-09 21:26N 52°07' E 003°42'0 0.1
2017-Nov-09 20:59N 52°07' E 003°42'  

Dump ship's entire track history